Time;durP1;ratioP1;P1;durP2;ratioP2;P2;SDS_P1;SDS_P2;PMS_P1;PMS_P2;Temp;Humidity;BMP_temperature;BMP_pressure;BME280_temperature;BME280_humidity;BME280_pressure;Samples;Min_cycle;Max_cycle;Signal;HPM_P1;HPM_P2
2023/03/01 00:01:17;;;;;;;1.98;1.00;;;;;;;7.09;100.00;100889.47;5029745;28;20060;-34
2023/03/01 00:03:43;;;;;;;1.83;0.95;;;;;;;7.04;100.00;100884.66;5030594;28;20037;-32
2023/03/01 00:06:09;;;;;;;1.73;0.88;;;;;;;7.07;100.00;100872.91;5029568;28;20123;-31
2023/03/01 00:08:35;;;;;;;1.85;1.02;;;;;;;6.91;100.00;100870.34;5030872;28;20037;-33
2023/03/01 00:11:13;;;;;;;2.17;1.10;;;;;;;7.10;100.00;100891.09;5030898;28;20029;-33
2023/03/01 00:13:39;;;;;;;1.67;1.10;;;;;;;7.14;100.00;100889.75;5030717;28;20036;-35
2023/03/01 00:16:07;;;;;;;1.80;1.05;;;;;;;7.16;100.00;100893.03;5030446;28;20049;-30
2023/03/01 00:18:33;;;;;;;3.22;1.40;;;;;;;6.97;100.00;100893.50;5030415;28;20098;-35
2023/03/01 00:20:59;;;;;;;2.75;1.30;;;;;;;6.84;100.00;100876.34;5030702;28;20029;-34
2023/03/01 00:23:24;;;;;;;4.07;1.40;;;;;;;6.99;100.00;100899.47;5030237;28;20118;-32
2023/03/01 00:25:50;;;;;;;3.63;1.65;;;;;;;6.95;100.00;100890.22;5044793;28;20033;-32
2023/03/01 00:28:16;;;;;;;2.75;1.50;;;;;;;7.20;100.00;100894.34;5049948;28;20037;-34
2023/03/01 00:30:41;;;;;;;2.30;1.33;;;;;;;6.97;100.00;100882.91;5044843;28;20059;-32
2023/03/01 00:33:07;;;;;;;2.92;1.52;;;;;;;6.99;100.00;100883.56;5030256;28;20041;-35
2023/03/01 00:35:33;;;;;;;2.15;1.38;;;;;;;7.07;100.00;100882.66;5029797;28;20845;-33
2023/03/01 00:37:59;;;;;;;2.67;1.20;;;;;;;7.02;100.00;100880.53;5030168;28;20459;-32
2023/03/01 00:40:25;;;;;;;2.58;1.48;;;;;;;7.01;100.00;100884.22;5030041;28;20037;-32
2023/03/01 00:42:51;;;;;;;2.70;1.30;;;;;;;7.01;100.00;100884.22;5030192;28;20050;-36
2023/03/01 00:45:18;;;;;;;3.53;1.73;;;;;;;7.08;100.00;100865.75;5029561;28;20393;-34
2023/03/01 00:47:44;;;;;;;2.97;1.30;;;;;;;6.97;100.00;100874.94;5028899;28;20036;-31
2023/03/01 00:50:10;;;;;;;2.95;1.50;;;;;;;6.91;100.00;100868.50;5028751;28;20030;-31
2023/03/01 00:52:36;;;;;;;3.03;1.33;;;;;;;7.02;100.00;100864.63;5029810;28;20516;-35
2023/03/01 00:55:01;;;;;;;4.50;2.00;;;;;;;6.92;100.00;100874.63;5029852;28;20053;-32
2023/03/01 00:57:27;;;;;;;3.25;1.90;;;;;;;6.70;100.00;100847.94;5029412;28;20025;-33
2023/03/01 00:59:52;;;;;;;2.60;1.60;;;;;;;6.76;100.00;100849.88;5029736;28;20029;-32
2023/03/01 01:02:21;;;;;;;2.05;1.55;;;;;;;6.82;100.00;100865.09;5030063;28;20592;-35
2023/03/01 01:04:47;;;;;;;2.42;1.40;;;;;;;6.92;100.00;100856.06;5030047;28;20025;-33
2023/03/01 01:07:13;;;;;;;2.67;1.67;;;;;;;6.83;100.00;100865.91;5029753;28;20029;-33
2023/03/01 01:09:38;;;;;;;4.60;1.90;;;;;;;6.78;100.00;100850.53;5029284;28;20029;-32
2023/03/01 01:12:04;;;;;;;2.47;1.40;;;;;;;6.78;100.00;100824.03;5029500;28;20028;-34
2023/03/01 01:14:30;;;;;;;4.53;2.22;;;;;;;6.88;100.00;100852.13;5029092;28;20552;-30
2023/03/01 01:16:55;;;;;;;6.20;3.30;;;;;;;6.90;100.00;100853.59;5029366;28;20171;-33
2023/03/01 01:19:21;;;;;;;5.38;2.78;;;;;;;6.79;100.00;100833.63;5029085;28;20111;-35
2023/03/01 01:21:48;;;;;;;6.25;2.90;;;;;;;6.91;100.00;100841.19;5029351;28;20509;-33
2023/03/01 01:24:13;;;;;;;4.57;2.20;;;;;;;6.95;100.00;100838.00;5029218;28;20128;-32
2023/03/01 01:26:39;;;;;;;8.10;3.30;;;;;;;7.16;100.00;100850.59;5027948;28;20116;-33
2023/03/01 01:29:05;;;;;;;12.25;4.15;;;;;;;6.91;100.00;100822.63;5029271;28;20037;-32
2023/03/01 01:31:33;;;;;;;10.48;3.78;;;;;;;6.72;100.00;100826.53;5027866;28;20029;-31
2023/03/01 01:34:00;;;;;;;11.65;4.95;;;;;;;7.01;100.00;100847.06;5029456;28;20143;-35
2023/03/01 01:36:26;;;;;;;8.48;3.35;;;;;;;6.91;100.00;100846.47;5029173;28;20037;-32
2023/03/01 01:38:51;;;;;;;10.52;3.45;;;;;;;7.04;100.00;100852.84;5029129;28;20038;-32
2023/03/01 01:41:19;;;;;;;11.55;3.72;;;;;;;7.14;100.00;100846.47;5028916;28;20163;-32
2023/03/01 01:43:48;;;;;;;14.23;4.53;;;;;;;6.94;100.00;100838.97;5028944;28;20072;-30
2023/03/01 01:46:22;;;;;;;13.48;4.45;;;;;;;7.08;100.00;100850.66;5029112;28;20075;-32
2023/03/01 01:48:53;;;;;;;12.27;4.78;;;;;;;6.84;100.00;100849.84;5029094;28;20410;-31
2023/03/01 01:51:25;;;;;;;11.13;4.82;;;;;;;6.81;100.00;100844.88;5028769;28;20025;-31
2023/03/01 01:53:56;;;;;;;4.60;2.75;;;;;;;6.86;100.00;100854.13;5029465;28;20029;-32
2023/03/01 01:56:27;;;;;;;5.20;2.58;;;;;;;6.80;100.00;100848.53;5028831;28;20030;-32
2023/03/01 01:58:53;;;;;;;3.50;2.25;;;;;;;6.40;100.00;100820.41;5029276;28;20489;-33
2023/03/01 02:01:19;;;;;;;4.38;2.60;;;;;;;6.53;100.00;100838.41;5028474;28;20056;-31
2023/03/01 02:03:47;;;;;;;5.55;2.83;;;;;;;6.63;100.00;100854.91;5028887;28;20029;-32
2023/03/01 02:06:28;;;;;;;4.80;2.53;;;;;;;6.78;100.00;100842.59;5028851;28;20029;-33
2023/03/01 02:08:59;;;;;;;5.00;2.50;;;;;;;6.94;100.00;100846.13;5027743;28;20069;-33
2023/03/01 02:11:25;;;;;;;3.83;2.10;;;;;;;7.08;100.00;100845.34;5028424;28;20029;-30
2023/03/01 02:13:53;;;;;;;2.88;1.88;;;;;;;6.67;100.00;100813.81;5029026;28;20017;-31
2023/03/01 02:16:19;;;;;;;3.03;1.73;;;;;;;6.99;100.00;100823.38;5028751;28;20033;-32
2023/03/01 02:18:45;;;;;;;2.55;1.50;;;;;;;6.69;100.00;100842.78;5028831;28;20342;-37
2023/03/01 02:21:19;;;;;;;3.70;1.88;;;;;;;6.81;100.00;100844.88;5029539;28;20030;-31
2023/03/01 02:23:45;;;;;;;3.80;1.80;;;;;;;6.55;100.00;100823.16;5032771;28;20540;-32
2023/03/01 02:26:40;;;;;;;3.75;1.85;;;;;;;6.74;100.00;100840.44;5032447;28;20049;-31
2023/03/01 02:29:06;;;;;;;2.83;1.77;;;;;;;6.76;100.00;100836.63;5031745;28;20045;-31
2023/03/01 02:31:44;;;;;;;3.90;1.80;;;;;;;6.82;100.00;100833.28;5031934;28;20543;-30
2023/03/01 02:34:21;;;;;;;2.95;1.95;;;;;;;6.74;100.00;100835.13;5032598;28;20033;-31
2023/03/01 02:37:12;;;;;;;3.38;1.70;;;;;;;6.82;100.00;100833.28;5030815;28;20029;-34
2023/03/01 02:39:49;;;;;;;3.55;1.92;;;;;;;6.88;100.00;100833.56;5032135;28;20434;-30
2023/03/01 02:42:22;;;;;;;3.53;2.10;;;;;;;6.71;100.00;100807.16;5031005;28;20053;-32
2023/03/01 02:44:49;;;;;;;3.35;1.70;;;;;;;6.88;100.00;100825.59;5032378;28;20108;-31
2023/03/01 02:47:15;;;;;;;5.88;4.72;;;;;;;6.69;100.00;100811.00;5030750;28;20520;-32
2023/03/01 02:49:41;;;;;;;21.45;19.42;;;;;;;6.88;100.00;100825.59;5032157;28;20049;-32
2023/03/01 02:52:28;;;;;;;13.57;10.90;;;;;;;7.02;100.00;100832.81;5031815;28;20023;-32
2023/03/01 02:54:56;;;;;;;22.13;17.67;;;;;;;6.97;100.00;100840.47;5032087;28;20168;-33
2023/03/01 02:57:23;;;;;;;;;;;;;;;6.84;100.00;100841.03;5032141;28;20022;-32
2023/03/01 02:59:51;;;;;;;62.95;45.08;;;;;;;6.88;100.00;100841.50;5031961;28;19917;-32
2023/03/01 03:02:36;;;;;;;101.45;68.53;;;;;;;7.00;100.00;100834.81;5031804;28;20125;-30
2023/03/01 03:05:05;;;;;;;35.67;28.42;;;;;;;6.79;100.00;100833.63;5031607;28;20030;-33
2023/03/01 03:07:33;;;;;;;15.77;11.75;;;;;;;6.88;100.00;100830.91;5031533;28;20410;-33
2023/03/01 03:10:00;;;;;;;7.88;6.47;;;;;;;6.80;100.00;100834.44;5031536;28;20040;-30
2023/03/01 03:12:25;;;;;;;6.38;4.93;;;;;;;6.70;100.00;100818.78;5032034;28;20767;-35
2023/03/01 03:14:51;;;;;;;10.40;8.82;;;;;;;6.74;100.00;100822.72;5031665;28;20033;-31
2023/03/01 03:17:17;;;;;;;7.70;6.07;;;;;;;7.06;100.00;100831.44;5029714;28;20029;-33
2023/03/01 03:19:45;;;;;;;11.43;7.95;;;;;;;6.92;100.00;100816.28;5031358;28;20025;-30
2023/03/01 03:22:11;;;;;;;8.45;5.65;;;;;;;6.97;100.00;100822.72;5031629;28;20033;-34
2023/03/01 03:24:37;;;;;;;3.63;2.30;;;;;;;6.86;100.00;100823.13;5031530;28;20409;-34
2023/03/01 03:27:04;;;;;;;5.80;4.00;;;;;;;6.66;100.00;100800.72;5031257;28;20033;-33
2023/03/01 03:29:30;;;;;;;8.15;6.20;;;;;;;6.77;100.00;100803.81;5031097;28;20228;-33
2023/03/01 03:31:55;;;;;;;6.55;5.20;;;;;;;6.91;100.00;100812.00;5030768;28;20117;-32
2023/03/01 03:34:21;;;;;;;8.43;6.55;;;;;;;7.03;100.00;100818.56;5031707;28;20056;-35
2023/03/01 03:36:46;;;;;;;11.02;10.00;;;;;;;6.99;100.00;100822.56;5031186;28;20095;-32
2023/03/01 03:39:12;;;;;;;5.38;3.40;;;;;;;6.86;100.00;100819.66;5031163;28;20497;-31
2023/03/01 03:41:37;;;;;;;3.63;1.90;;;;;;;7.00;100.00;100824.19;5030621;28;20722;-32
2023/03/01 03:44:03;;;;;;;5.50;3.33;;;;;;;6.95;100.00;100813.31;5031096;28;20045;-39
2023/03/01 03:46:28;;;;;;;6.07;3.28;;;;;;;6.89;100.00;100816.66;5031317;28;20029;-33
2023/03/01 03:48:53;;;;;;;7.43;5.57;;;;;;;6.99;100.00;100810.13;5031138;28;20029;-34
2023/03/01 03:51:19;;;;;;;22.73;12.07;;;;;;;6.90;100.00;100815.66;5031099;28;20467;-32
2023/03/01 03:53:45;;;;;;;20.77;11.80;;;;;;;7.03;100.00;100823.84;5030897;28;20025;-37
2023/03/01 03:56:11;;;;;;;8.02;4.22;;;;;;;7.00;100.00;100819.72;5029715;28;20026;-34
2023/03/01 03:58:56;;;;;;;36.72;25.02;;;;;;;7.08;100.00;100825.97;5030665;28;20426;-32
2023/03/01 04:01:21;;;;;;;17.70;11.00;;;;;;;6.99;100.00;100798.69;5030867;28;20030;-32
2023/03/01 04:03:46;;;;;;;119.50;63.35;;;;;;;7.23;100.00;100809.09;5030914;28;20037;-32
2023/03/01 04:06:15;;;;;;;28.90;17.33;;;;;;;7.10;100.00;100800.91;5029411;28;20029;-31
2023/03/01 04:08:40;;;;;;;23.92;12.70;;;;;;;7.29;100.00;100809.38;5030812;28;20083;-30
2023/03/01 04:13:52;;;;;;;67.85;41.47;;;;;;;6.97;100.00;100811.31;5030621;28;20044;-31
2023/03/01 04:16:18;;;;;;;19.50;11.20;;;;;;;7.19;100.00;100799.00;5030923;28;20516;-30
2023/03/01 04:18:44;;;;;;;10.85;7.32;;;;;;;6.91;100.00;100819.97;5030505;28;20141;-30
2023/03/01 04:21:11;;;;;;;31.63;19.30;;;;;;;7.03;100.00;100807.94;5030560;28;20108;-32
2023/03/01 04:23:37;;;;;;;23.55;14.43;;;;;;;6.88;100.00;100801.75;5030033;28;20204;-33
2023/03/01 04:26:03;;;;;;;31.50;19.15;;;;;;;6.92;100.00;100814.47;5029863;28;20490;-34
2023/03/01 04:28:40;;;;;;;48.55;29.73;;;;;;;6.99;100.00;100809.31;5030464;28;20060;-31
2023/03/01 04:31:13;;;;;;;29.63;18.55;;;;;;;6.89;100.00;100801.56;5028869;28;20030;-34
2023/03/01 04:33:52;;;;;;;60.80;30.70;;;;;;;6.80;100.00;100808.75;5030190;28;20053;-34
2023/03/01 04:36:21;;;;;;;25.50;14.57;;;;;;;6.78;100.00;100792.22;5028713;28;20033;-35
2023/03/01 04:38:47;;;;;;;;;;;;;;;6.86;100.00;100817.00;5030248;28;20053;-32
2023/03/01 04:41:16;;;;;;;54.78;30.27;;;;;;;6.80;100.00;100811.41;5029895;28;19917;-33
2023/03/01 04:43:41;;;;;;;21.67;13.63;;;;;;;6.73;100.00;100799.84;5028283;28;20049;-33
2023/03/01 04:46:16;;;;;;;27.15;15.18;;;;;;;6.97;100.00;100813.97;5029855;28;20029;-30
2023/03/01 04:48:44;;;;;;;17.38;9.80;;;;;;;6.81;100.00;100820.19;5030025;28;20036;-31
2023/03/01 04:51:13;;;;;;;7.30;4.13;;;;;;;6.76;100.00;100827.81;5029624;28;20037;-32
2023/03/01 04:53:39;;;;;;;30.50;16.45;;;;;;;6.80;100.00;100824.69;5029809;28;20121;-35
2023/03/01 04:56:06;;;;;;;6.32;3.05;;;;;;;6.93;100.00;100812.66;5029967;28;20053;-33
2023/03/01 04:58:32;;;;;;;5.07;2.38;;;;;;;6.86;100.00;100806.41;5029832;28;20512;-32
2023/03/01 05:00:57;;;;;;;2.75;1.70;;;;;;;6.88;100.00;100793.78;5029771;28;20037;-33
2023/03/01 05:03:23;;;;;;;5.30;2.60;;;;;;;7.01;100.00;100821.38;5029388;28;20029;-33
2023/03/01 05:05:51;;;;;;;3.47;1.98;;;;;;;6.93;100.00;100833.88;5029459;28;20512;-32
2023/03/01 05:08:20;;;;;;;3.38;2.00;;;;;;;6.90;100.00;100820.94;5028495;28;20083;-32
2023/03/01 05:10:49;;;;;;;3.90;1.95;;;;;;;6.91;100.00;100819.97;5028335;28;20490;-33
2023/03/01 05:13:20;;;;;;;7.15;2.30;;;;;;;6.77;100.00;100817.06;5029350;28;20030;-32
2023/03/01 05:15:59;;;;;;;4.50;2.55;;;;;;;7.03;100.00;100821.22;5029413;28;20048;-31
2023/03/01 05:18:26;;;;;;;5.75;3.15;;;;;;;6.78;100.00;100821.38;5029340;28;20030;-32
2023/03/01 05:20:57;;;;;;;6.60;2.35;;;;;;;6.78;100.00;100826.69;5029499;28;20033;-35
2023/03/01 05:23:24;;;;;;;4.38;2.65;;;;;;;6.88;100.00;100828.25;5029015;28;20028;-31
2023/03/01 05:25:52;;;;;;;5.85;2.72;;;;;;;7.18;100.00;100822.06;5029323;28;20418;-31
2023/03/01 05:28:18;;;;;;;5.63;2.95;;;;;;;7.12;100.00;100822.78;5028016;28;20037;-32
2023/03/01 05:30:44;;;;;;;6.10;2.58;;;;;;;6.80;100.00;100808.75;5029166;28;20099;-31
2023/03/01 05:33:13;;;;;;;4.93;2.75;;;;;;;6.80;100.00;100814.06;5027909;28;20033;-31
2023/03/01 05:35:41;;;;;;;5.80;3.22;;;;;;;6.74;100.00;100814.78;5029334;28;20033;-31
2023/03/01 05:38:06;;;;;;;5.20;3.15;;;;;;;6.92;100.00;100816.28;5031023;28;20409;-42
2023/03/01 05:40:33;;;;;;;6.72;3.95;;;;;;;7.24;100.00;100826.66;5048994;28;20556;-32
2023/03/01 05:42:59;;;;;;;8.52;4.40;;;;;;;7.21;100.00;100815.56;5049282;28;20056;-32
2023/03/01 05:45:27;;;;;;;7.43;4.68;;;;;;;7.09;100.00;100817.84;5048579;28;20772;-33
2023/03/01 05:47:54;;;;;;;6.90;3.83;;;;;;;6.89;100.00;100817.47;5049282;28;20037;-32
2023/03/01 05:50:32;;;;;;;6.57;3.60;;;;;;;7.01;100.00;100820.56;5048921;28;20024;-32
2023/03/01 05:53:05;;;;;;;20.40;9.75;;;;;;;7.15;100.00;100826.91;5049086;28;20037;-33
2023/03/01 05:55:31;;;;;;;40.63;18.60;;;;;;;7.04;100.00;100846.72;5049025;28;20028;-32
2023/03/01 05:58:02;;;;;;;6.07;3.55;;;;;;;7.14;100.00;100825.25;5052879;28;20040;-33
2023/03/01 06:00:29;;;;;;;43.72;22.75;;;;;;;7.12;100.00;100833.38;5053054;28;20025;-31
2023/03/01 06:02:56;;;;;;;32.10;15.90;;;;;;;7.24;100.00;100826.66;5052971;28;20043;-32
2023/03/01 06:05:22;;;;;;;9.57;5.20;;;;;;;7.16;100.00;100826.72;5052276;28;20052;-33
2023/03/01 06:07:48;;;;;;;7.03;5.07;;;;;;;7.22;100.00;100827.84;5052871;28;20087;-32
2023/03/01 06:10:14;;;;;;;14.68;10.88;;;;;;;7.26;100.00;100844.25;5052495;28;20033;-32
2023/03/01 06:12:41;;;;;;;7.57;4.32;;;;;;;7.13;100.00;100856.28;5053015;28;20039;-38
2023/03/01 06:15:09;;;;;;;8.20;4.53;;;;;;;7.00;100.00;100850.72;5053145;28;20424;-34
2023/03/01 06:17:37;;;;;;;;;;;;;;;7.10;100.00;100867.22;5053289;28;20037;-31
2023/03/01 06:20:08;;;;;;;7.53;4.47;;;;;;;7.29;100.00;100865.09;5052674;28;20403;-31
2023/03/01 06:22:34;;;;;;;6.75;4.22;;;;;;;7.39;100.00;100858.53;5052458;28;20029;-31
2023/03/01 06:24:59;;;;;;;7.45;4.20;;;;;;;7.47;100.00;100862.97;5052622;28;20033;-31
2023/03/01 06:27:24;;;;;;;7.93;4.53;;;;;;;7.34;100.00;100860.09;5052665;28;20056;-33
2023/03/01 06:29:50;;;;;;;8.52;4.72;;;;;;;7.27;100.00;100843.22;5052571;28;20037;-31
2023/03/01 06:32:16;;;;;;;17.33;7.22;;;;;;;7.47;100.00;100852.34;5052312;28;20108;-33
2023/03/01 06:34:41;;;;;;;13.35;7.60;;;;;;;7.29;100.00;100855.31;5052374;28;20029;-31
2023/03/01 06:37:07;;;;;;;14.77;8.05;;;;;;;7.25;100.00;100859.31;5052151;28;20586;-31
2023/03/01 06:39:33;;;;;;;12.70;5.53;;;;;;;7.20;100.00;100835.97;5051794;28;20105;-37
2023/03/01 06:41:58;;;;;;;26.30;15.07;;;;;;;7.23;100.00;100856.88;5052110;28;20061;-31
2023/03/01 06:44:24;;;;;;;33.38;23.65;;;;;;;7.32;100.00;100856.81;5052065;28;20028;-31
2023/03/01 06:46:49;;;;;;;23.13;13.50;;;;;;;7.07;100.00;100846.38;5052178;28;20032;-32
2023/03/01 06:49:16;;;;;;;38.40;29.95;;;;;;;7.16;100.00;100855.91;5051758;28;20094;-33
2023/03/01 06:51:41;;;;;;;6.60;4.20;;;;;;;7.00;100.00;100838.28;5050630;28;20025;-33
2023/03/01 06:54:07;;;;;;;7.85;4.88;;;;;;;7.04;100.00;100836.91;5051681;28;20036;-32
2023/03/01 06:56:33;;;;;;;32.08;22.30;;;;;;;7.00;100.00;100818.91;5052099;28;20025;-35
2023/03/01 06:58:59;;;;;;;14.93;10.60;;;;;;;7.36;100.00;100850.13;5051879;28;20064;-35
2023/03/01 07:01:24;;;;;;;23.33;14.25;;;;;;;7.33;100.00;100856.59;5051758;28;20137;-32
2023/03/01 07:03:50;;;;;;;11.57;6.95;;;;;;;7.40;100.00;100852.25;5051851;28;20100;-32
2023/03/01 07:06:19;;;;;;;54.85;36.22;;;;;;;7.43;100.00;100862.50;5051483;28;20032;-34
2023/03/01 07:08:44;;;;;;;6.38;3.63;;;;;;;7.26;100.00;100844.25;5051303;28;20029;-31
2023/03/01 07:11:10;;;;;;;48.78;28.85;;;;;;;7.50;100.00;100845.84;5052048;28;20082;-32
2023/03/01 07:13:35;;;;;;;19.88;12.85;;;;;;;7.29;100.00;100833.25;5051984;28;20032;-35
2023/03/01 07:16:01;;;;;;;26.35;15.70;;;;;;;7.50;100.00;100859.97;5051662;28;20413;-34
2023/03/01 07:18:26;;;;;;;21.08;13.75;;;;;;;7.38;100.00;100845.47;5051482;28;20033;-31
2023/03/01 07:20:52;;;;;;;12.77;7.13;;;;;;;7.51;100.00;100842.19;5051386;28;20190;-36
2023/03/01 07:23:17;;;;;;;48.45;24.27;;;;;;;7.44;100.00;100852.72;5051028;28;20429;-32
2023/03/01 07:25:42;;;;;;;212.55;87.20;;;;;;;7.43;100.00;100837.78;5051566;28;20021;-31
2023/03/01 07:28:08;;;;;;;220.35;93.65;;;;;;;7.71;100.00;100861.09;5051254;28;20036;-32
2023/03/01 07:30:33;;;;;;;49.95;29.92;;;;;;;7.70;100.00;100851.47;5051335;28;20519;-31
2023/03/01 07:32:59;;;;;;;54.30;26.95;;;;;;;7.70;100.00;100860.25;5051126;28;20031;-31
2023/03/01 07:35:27;;;;;;;11.40;7.47;;;;;;;7.50;100.00;100852.00;5049742;28;20025;-32
2023/03/01 07:37:53;;;;;;;62.55;32.25;;;;;;;7.51;100.00;100863.44;5050795;28;20110;-31
2023/03/01 07:40:19;;;;;;;102.05;46.90;;;;;;;7.43;100.00;100845.75;5051201;28;20091;-32
2023/03/01 07:42:47;;;;;;;47.63;22.63;;;;;;;7.26;100.00;100854.84;5050799;28;20056;-32
2023/03/01 07:45:13;;;;;;;43.03;21.30;;;;;;;7.34;100.00;100852.97;5051081;28;20067;-32
2023/03/01 07:47:38;;;;;;;33.78;19.02;;;;;;;7.41;100.00;100842.44;5051169;28;20041;-32
2023/03/01 07:50:05;;;;;;;53.60;26.98;;;;;;;7.23;100.00;100825.03;5051108;28;20035;-34
2023/03/01 07:52:31;;;;;;;19.85;10.63;;;;;;;7.49;100.00;100847.69;5050719;28;20040;-32
2023/03/01 07:54:56;;;;;;;73.10;36.50;;;;;;;7.38;100.00;100848.13;5050843;28;20041;-31
2023/03/01 07:57:22;;;;;;;115.55;55.20;;;;;;;7.39;100.00;100844.44;5050858;28;20032;-34
2023/03/01 07:59:48;;;;;;;103.00;50.28;;;;;;;7.30;100.00;100838.41;5050598;28;20029;-32
2023/03/01 08:02:14;;;;;;;70.78;36.70;;;;;;;7.18;100.00;100824.72;5049512;28;20496;-32
2023/03/01 08:04:40;;;;;;;91.20;47.10;;;;;;;7.11;100.00;100809.69;5050544;28;20035;-34
2023/03/01 08:07:06;;;;;;;98.65;47.20;;;;;;;7.38;100.00;100848.94;5050462;28;20033;-33
2023/03/01 08:09:35;;;;;;;68.55;34.63;;;;;;;7.40;100.00;100836.31;5050474;28;20029;-32
2023/03/01 08:12:00;;;;;;;50.28;27.20;;;;;;;7.18;100.00;100843.28;5050550;28;20031;-32
2023/03/01 08:14:26;;;;;;;101.22;49.38;;;;;;;7.21;100.00;100844.75;5041054;28;20026;-32
2023/03/01 08:16:51;;;;;;;212.40;101.70;;;;;;;7.34;100.00;100830.91;5030133;28;20505;-30
2023/03/01 08:19:17;;;;;;;115.13;53.28;;;;;;;7.18;100.00;100827.38;5029135;28;20033;-31
2023/03/01 08:21:44;;;;;;;75.88;37.95;;;;;;;7.08;100.00;100816.19;5029886;28;20436;-31
2023/03/01 08:24:10;;;;;;;66.00;32.57;;;;;;;7.06;100.00;100839.41;5030230;28;20079;-29
2023/03/01 08:26:36;;;;;;;50.47;26.27;;;;;;;7.14;100.00;100836.69;5030430;28;20252;-31
2023/03/01 08:29:03;;;;;;;118.60;51.15;;;;;;;7.19;100.00;100839.66;5030273;28;20039;-31
2023/03/01 08:31:37;;;;;;;71.82;38.05;;;;;;;7.28;100.00;100845.72;5028611;28;20079;-31
2023/03/01 08:34:06;;;;;;;137.07;72.63;;;;;;;7.34;100.00;100839.69;5029915;28;20091;-34
2023/03/01 08:36:33;;;;;;;;;;;;;;;7.43;100.00;100837.78;5030621;28;20044;-35
2023/03/01 08:38:59;;;;;;;160.68;69.55;;;;;;;7.40;100.00;100831.00;5030061;28;19913;-32
2023/03/01 08:41:24;;;;;;;109.28;49.45;;;;;;;7.50;100.00;100841.38;5028101;28;20033;-31
2023/03/01 08:43:50;;;;;;;63.03;32.15;;;;;;;7.47;100.00;100839.06;5029827;28;20037;-32
2023/03/01 08:46:15;;;;;;;25.00;12.00;;;;;;;7.15;100.00;100826.91;5029829;28;20025;-31
2023/03/01 08:48:42;;;;;;;26.77;19.05;;;;;;;6.88;100.00;100842.34;5029671;28;20112;-33
2023/03/01 08:51:17;;;;;;;48.80;34.45;;;;;;;7.08;100.00;100842.69;5030056;28;20095;-31
2023/03/01 08:53:42;;;;;;;49.10;24.98;;;;;;;7.16;100.00;100837.34;5029597;28;20033;-32
2023/03/01 08:56:09;;;;;;;47.83;22.73;;;;;;;7.08;100.00;100841.88;5029683;28;20461;-32
2023/03/01 08:58:35;;;;;;;54.03;22.77;;;;;;;6.98;100.00;100818.25;5029559;28;20025;-32
2023/03/01 09:01:06;;;;;;;113.28;45.03;;;;;;;7.13;100.00;100831.56;5029470;28;20064;-34
2023/03/01 09:03:31;;;;;;;74.20;30.88;;;;;;;7.01;100.00;100836.47;5029641;28;20061;-31
2023/03/01 09:06:00;;;;;;;37.40;17.08;;;;;;;6.95;100.00;100818.63;5012309;28;20049;-36
2023/03/01 09:08:26;;;;;;;222.13;97.18;;;;;;;6.84;100.00;100833.94;5029663;28;20031;-32
2023/03/01 09:10:51;;;;;;;95.75;42.80;;;;;;;6.83;100.00;100832.25;5029497;28;20026;-33
2023/03/01 09:13:17;;;;;;;38.97;22.65;;;;;;;6.96;100.00;100844.13;5029641;28;20116;-33
2023/03/01 09:15:42;;;;;;;15.48;10.60;;;;;;;6.92;100.00;100837.50;5029188;28;20030;-31
2023/03/01 09:18:08;;;;;;;15.88;11.32;;;;;;;7.18;100.00;100824.72;5029653;28;20032;-33
2023/03/01 09:20:33;;;;;;;14.38;10.43;;;;;;;7.10;100.00;100840.69;5029173;28;20051;-35
2023/03/01 09:22:59;;;;;;;26.13;23.40;;;;;;;6.59;100.00;100821.81;5029463;28;20025;-31
2023/03/01 09:25:24;;;;;;;15.30;9.73;;;;;;;6.81;100.00;100823.66;5029368;28;20171;-31
2023/03/01 09:27:54;;;;;;;11.50;8.20;;;;;;;6.62;100.00;100821.47;5027975;28;20106;-32
2023/03/01 09:30:20;;;;;;;15.30;9.65;;;;;;;6.71;100.00;100819.59;5028991;28;20120;-32
2023/03/01 09:32:46;;;;;;;13.35;9.43;;;;;;;6.91;100.00;100842.00;5028963;28;20029;-31
2023/03/01 09:35:12;;;;;;;11.57;5.60;;;;;;;6.71;100.00;100836.31;5027833;28;20482;-33
2023/03/01 09:37:39;;;;;;;8.65;4.75;;;;;;;6.74;100.00;100829.81;5028982;28;20029;-32
2023/03/01 09:40:07;;;;;;;9.48;4.50;;;;;;;6.96;100.00;100836.16;5029269;28;20041;-31
2023/03/01 09:42:35;;;;;;;9.50;4.07;;;;;;;6.70;100.00;100842.63;5029186;28;20053;-31
2023/03/01 09:45:06;;;;;;;10.30;5.18;;;;;;;6.77;100.00;100840.91;5028831;28;20025;-32
2023/03/01 09:47:34;;;;;;;8.13;3.80;;;;;;;6.82;100.00;100833.28;5028913;28;20525;-32
2023/03/01 09:50:03;;;;;;;11.60;5.20;;;;;;;6.82;100.00;100820.03;5027595;28;20037;-31
2023/03/01 09:53:03;;;;;;;10.80;5.50;;;;;;;7.04;100.00;100834.25;5028805;28;20498;-31
2023/03/01 09:55:40;;;;;;;31.10;12.23;;;;;;;7.16;100.00;100834.69;5027164;28;20046;-34
2023/03/01 09:58:34;;;;;;;11.67;5.33;;;;;;;7.22;100.00;100831.31;5029107;28;20068;-35
2023/03/01 10:01:23;;;;;;;11.65;4.88;;;;;;;7.27;100.00;100824.66;5028764;28;20025;-31
2023/03/01 10:03:58;;;;;;;61.35;27.65;;;;;;;7.28;100.00;100811.22;5028732;28;20417;-33
2023/03/01 10:06:24;;;;;;;149.43;49.70;;;;;;;7.23;100.00;100803.81;5028918;28;20032;-32
2023/03/01 10:09:13;;;;;;;183.73;61.22;;;;;;;7.37;100.00;100809.31;5028694;28;20033;-32
2023/03/01 10:11:45;;;;;;;18.90;7.55;;;;;;;7.41;100.00;100816.72;5028820;28;20030;-32
2023/03/01 10:14:36;;;;;;;68.30;24.77;;;;;;;7.46;100.00;100813.56;5027059;28;20490;-39
2023/03/01 10:17:21;;;;;;;104.80;35.25;;;;;;;7.24;100.00;100809.94;5028725;28;20119;-31
2023/03/01 10:19:46;;;;;;;55.38;22.33;;;;;;;7.11;100.00;100797.28;5027308;28;20036;-32
2023/03/01 10:22:18;;;;;;;32.65;11.43;;;;;;;6.75;100.00;100816.41;5028690;28;20026;-31
2023/03/01 10:24:46;;;;;;;78.78;27.92;;;;;;;6.75;100.00;100789.91;5028629;28;20033;-31
2023/03/01 10:27:21;;;;;;;69.30;27.65;;;;;;;6.91;100.00;100804.06;5028545;28;20033;-31
2023/03/01 10:30:06;;;;;;;50.55;24.45;;;;;;;7.17;100.00;100801.03;5028397;28;20084;-31
2023/03/01 10:32:32;;;;;;;31.92;17.50;;;;;;;6.76;100.00;100767.72;5028354;28;20025;-35
2023/03/01 10:34:58;;;;;;;36.35;20.45;;;;;;;6.92;100.00;100784.47;5028118;28;20033;-34
2023/03/01 10:37:25;;;;;;;25.42;14.93;;;;;;;7.17;100.00;100799.22;5028101;28;20087;-31
2023/03/01 10:40:09;;;;;;;39.78;22.17;;;;;;;7.27;100.00;100798.13;5026988;28;20026;-33
2023/03/01 10:42:57;;;;;;;22.98;12.43;;;;;;;7.39;100.00;100797.50;5029817;28;20112;-30
2023/03/01 10:45:29;;;;;;;18.08;10.05;;;;;;;7.08;100.00;100800.25;5031600;28;20163;-31
2023/03/01 10:48:18;;;;;;;13.80;8.55;;;;;;;7.16;100.00;100791.44;5031742;28;20492;-32
2023/03/01 10:50:48;;;;;;;107.93;45.50;;;;;;;7.34;100.00;100799.06;5032080;28;20026;-31
2023/03/01 10:53:30;;;;;;;13.85;10.02;;;;;;;7.17;100.00;100791.25;5031431;28;20057;-35
2023/03/01 10:56:04;;;;;;;15.85;12.10;;;;;;;7.03;100.00;100770.81;5031763;28;20406;-33
2023/03/01 10:58:30;;;;;;;11.98;8.95;;;;;;;7.26;100.00;100780.56;5031611;28;20037;-31
2023/03/01 11:01:00;;;;;;;17.98;12.38;;;;;;;7.26;100.00;100785.88;5031744;28;20035;-31
2023/03/01 11:03:31;;;;;;;23.30;16.33;;;;;;;7.19;100.00;100786.59;5031413;28;20111;-32
2023/03/01 11:06:20;;;;;;;17.45;11.63;;;;;;;7.21;100.00;100786.38;5031781;28;20116;-32
2023/03/01 11:08:47;;;;;;;16.70;13.98;;;;;;;7.13;100.00;100757.28;5029967;28;20036;-33
2023/03/01 11:11:21;;;;;;;19.02;14.18;;;;;;;7.49;100.00;100776.03;5031388;28;20029;-38
2023/03/01 11:13:54;;;;;;;13.80;8.60;;;;;;;7.50;100.00;100767.06;5031588;28;20417;-32
2023/03/01 11:16:48;;;;;;;16.45;10.15;;;;;;;7.65;100.00;100764.44;5031339;28;20040;-34
2023/03/01 11:19:20;;;;;;;17.35;12.80;;;;;;;7.25;100.00;100750.53;5030938;28;20041;-33
2023/03/01 11:21:54;;;;;;;35.25;25.75;;;;;;;7.64;100.00;100760.09;5029982;28;20057;-31
2023/03/01 11:24:26;;;;;;;15.82;10.90;;;;;;;7.57;100.00;100765.31;5031615;28;20033;-35
2023/03/01 11:26:54;;;;;;;13.75;9.10;;;;;;;7.84;100.00;100752.41;5031004;28;20080;-37